createdAt,value
2019-01-18T00:02:13.221Z,11.67
2019-01-18T00:04:44.552Z,11.47
2019-01-18T00:07:15.870Z,9.20
2019-01-18T00:09:47.227Z,8.83
2019-01-18T00:12:18.525Z,5.40
2019-01-18T00:14:50.053Z,8.53
2019-01-18T00:17:21.848Z,8.87
2019-01-18T00:19:53.215Z,7.87
2019-01-18T00:22:24.515Z,7.63
2019-01-18T00:24:55.844Z,7.60
2019-01-18T00:27:29.355Z,8.97
2019-01-18T00:30:00.174Z,5.90
2019-01-18T00:32:31.462Z,11.53
2019-01-18T00:35:02.802Z,7.80
2019-01-18T00:37:34.177Z,5.90
2019-01-18T00:40:06.795Z,4.97
2019-01-18T00:42:38.131Z,8.43
2019-01-18T00:45:12.783Z,7.07
2019-01-18T00:47:44.159Z,9.90
2019-01-18T00:50:17.398Z,9.57
2019-01-18T00:52:48.841Z,8.73
2019-01-18T00:55:20.361Z,8.50
2019-01-18T00:57:51.696Z,7.53
2019-01-18T01:00:29.753Z,9.60
2019-01-18T01:03:01.164Z,8.10
2019-01-18T01:05:32.601Z,7.20
2019-01-18T01:08:03.918Z,9.13
2019-01-18T01:10:35.306Z,13.83
2019-01-18T01:13:06.745Z,7.27
2019-01-18T01:15:38.242Z,15.60
2019-01-18T01:18:09.825Z,9.07
2019-01-18T01:20:41.123Z,10.43
2019-01-18T01:23:12.487Z,11.50
2019-01-18T01:25:43.777Z,10.37
2019-01-18T01:28:15.112Z,7.23
2019-01-18T01:30:46.502Z,15.87
2019-01-18T01:33:17.800Z,10.90
2019-01-18T01:35:49.103Z,20.90
2019-01-18T01:38:20.408Z,8.50
2019-01-18T01:40:51.746Z,9.03
2019-01-18T01:43:23.034Z,9.23
2019-01-18T01:45:54.354Z,12.70
2019-01-18T01:48:25.662Z,7.40
2019-01-18T01:50:56.981Z,7.67
2019-01-18T01:53:28.379Z,6.60
2019-01-18T01:55:59.657Z,15.70
2019-01-18T01:58:31.008Z,13.03
2019-01-18T02:01:02.297Z,10.53
2019-01-18T02:03:33.794Z,10.77
2019-01-18T02:06:05.105Z,11.63
2019-01-18T02:08:36.448Z,11.63
2019-01-18T02:11:07.834Z,10.83
2019-01-18T02:13:39.177Z,12.37
2019-01-18T02:16:10.465Z,14.50
2019-01-18T02:18:41.791Z,10.67
2019-01-18T02:21:13.203Z,17.63
2019-01-18T02:23:44.465Z,15.57
2019-01-18T02:26:15.771Z,17.10
2019-01-18T02:28:47.057Z,18.40
2019-01-18T02:31:18.265Z,12.73
2019-01-18T02:33:52.754Z,12.50
2019-01-18T02:36:36.112Z,12.80
2019-01-18T02:39:10.740Z,14.57
2019-01-18T02:41:42.024Z,16.40
2019-01-18T02:44:13.282Z,11.80
2019-01-18T02:46:44.631Z,20.53
2019-01-18T02:49:15.896Z,12.20
2019-01-18T02:51:47.172Z,17.37
2019-01-18T02:54:18.502Z,14.27
2019-01-18T02:56:49.791Z,10.97
2019-01-18T02:59:21.057Z,9.13
2019-01-18T03:01:52.306Z,16.37
2019-01-18T03:04:29.483Z,9.53
2019-01-18T03:07:00.864Z,10.77
2019-01-18T03:09:32.135Z,11.90
2019-01-18T03:12:03.473Z,8.73
2019-01-18T03:14:34.743Z,12.17
2019-01-18T03:17:06.001Z,17.07
2019-01-18T03:19:37.294Z,12.67
2019-01-18T03:22:08.602Z,7.90
2019-01-18T03:24:39.862Z,10.27
2019-01-18T03:27:11.148Z,7.33
2019-01-18T03:29:42.402Z,9.57
2019-01-18T03:32:13.712Z,6.57
2019-01-18T03:34:44.940Z,8.57
2019-01-18T03:37:16.236Z,15.80
2019-01-18T03:39:47.430Z,4.97
2019-01-18T03:42:18.736Z,5.33
2019-01-18T03:44:49.980Z,14.03
2019-01-18T03:47:21.188Z,6.70
2019-01-18T03:49:52.436Z,9.97
2019-01-18T03:52:23.905Z,9.20
2019-01-18T03:54:55.151Z,6.50
2019-01-18T03:57:26.456Z,13.47
2019-01-18T03:59:57.783Z,8.27
2019-01-18T04:02:28.960Z,15.50
2019-01-18T04:05:00.313Z,7.93
2019-01-18T04:07:31.569Z,6.70
2019-01-18T04:10:02.835Z,8.73
2019-01-18T04:12:34.113Z,9.13
2019-01-18T04:15:07.297Z,6.57
2019-01-18T04:17:38.634Z,7.33
2019-01-18T04:20:12.325Z,4.83
2019-01-18T04:22:43.835Z,6.87
2019-01-18T04:25:21.984Z,8.03
2019-01-18T04:27:53.227Z,6.83
2019-01-18T04:30:25.039Z,12.80
2019-01-18T04:32:56.372Z,6.50
2019-01-18T04:35:27.643Z,5.43
2019-01-18T04:37:59.135Z,5.40
2019-01-18T04:40:30.709Z,6.50
2019-01-18T04:43:02.000Z,6.23
2019-01-18T04:45:33.239Z,6.00
2019-01-18T04:48:04.552Z,10.60
2019-01-18T04:50:35.807Z,6.93
2019-01-18T04:53:07.096Z,9.67
2019-01-18T04:55:38.269Z,6.37
2019-01-18T04:58:09.572Z,6.73
2019-01-18T05:00:41.676Z,14.07
2019-01-18T05:03:13.277Z,7.87
2019-01-18T05:05:44.674Z,9.63
2019-01-18T05:08:15.921Z,5.63
2019-01-18T05:10:47.220Z,9.37
2019-01-18T05:13:18.439Z,6.90
2019-01-18T05:15:49.768Z,8.53
2019-01-18T05:18:22.113Z,12.37
2019-01-18T05:20:53.474Z,16.70
2019-01-18T05:23:24.624Z,8.80
2019-01-18T05:25:55.964Z,9.60
2019-01-18T05:28:27.300Z,11.50
2019-01-18T05:30:58.673Z,14.70
2019-01-18T05:33:29.918Z,9.97
2019-01-18T05:36:01.266Z,18.70
2019-01-18T05:38:32.542Z,8.67
2019-01-18T05:41:03.845Z,9.13
2019-01-18T05:43:35.182Z,7.87
2019-01-18T05:46:06.511Z,9.17
2019-01-18T05:48:37.754Z,12.57
2019-01-18T05:51:08.995Z,13.23
2019-01-18T05:53:40.481Z,13.00
2019-01-18T05:56:11.768Z,9.97
2019-01-18T05:58:43.044Z,12.17
2019-01-18T06:01:15.215Z,13.13
2019-01-18T06:03:46.503Z,13.00
2019-01-18T06:06:17.880Z,17.30
2019-01-18T06:08:49.140Z,13.80
2019-01-18T06:11:21.774Z,14.50
2019-01-18T06:13:53.089Z,14.13
2019-01-18T06:16:23.134Z,17.43
2019-01-18T06:18:54.464Z,13.63
2019-01-18T06:21:25.818Z,19.23
2019-01-18T06:23:57.074Z,17.13
2019-01-18T06:26:28.409Z,15.03
2019-01-18T06:28:59.683Z,11.80
2019-01-18T06:31:31.025Z,23.43
2019-01-18T06:34:02.404Z,13.83
2019-01-18T06:36:33.673Z,12.97
2019-01-18T06:39:07.261Z,16.47
2019-01-18T06:41:47.478Z,18.80
2019-01-18T06:44:18.829Z,21.47
2019-01-18T06:46:50.040Z,16.10
2019-01-18T06:49:21.470Z,13.60
2019-01-18T06:51:52.757Z,15.87
2019-01-18T06:54:24.084Z,14.80
2019-01-18T06:56:55.524Z,15.10
2019-01-18T06:59:26.812Z,22.87
2019-01-18T07:01:58.188Z,20.47
2019-01-18T07:04:29.491Z,21.70
2019-01-18T07:07:00.896Z,18.30
2019-01-18T07:09:32.213Z,22.57
2019-01-18T07:12:03.487Z,26.13
2019-01-18T07:14:34.813Z,17.50
2019-01-18T07:17:06.089Z,16.00
2019-01-18T07:19:37.681Z,19.10
2019-01-18T07:22:08.993Z,22.37
2019-01-18T07:24:40.298Z,18.00
2019-01-18T07:27:11.576Z,20.90
2019-01-18T07:32:13.522Z,25.13
2019-01-18T07:34:44.794Z,21.67
2019-01-18T07:37:15.989Z,31.00
2019-01-18T07:39:47.485Z,23.93
2019-01-18T07:42:18.727Z,32.63
2019-01-18T07:44:50.059Z,28.83
2019-01-18T07:47:21.330Z,24.17
2019-01-18T07:49:52.667Z,18.33
2019-01-18T07:52:23.965Z,21.97
2019-01-18T07:54:55.284Z,29.13
2019-01-18T07:57:26.646Z,29.00
2019-01-18T07:59:57.920Z,29.17
2019-01-18T08:02:29.423Z,24.63
2019-01-18T08:05:00.756Z,30.10
2019-01-18T08:07:32.491Z,23.37
2019-01-18T08:10:04.001Z,26.20
2019-01-18T08:12:35.567Z,30.40
2019-01-18T08:15:09.514Z,43.00
2019-01-18T08:17:41.850Z,37.03
2019-01-18T08:20:17.778Z,65.93
2019-01-18T08:22:51.442Z,57.53
2019-01-18T08:25:23.575Z,60.03
2019-01-18T08:27:56.406Z,51.90
2019-01-18T08:30:30.627Z,49.77
2019-01-18T08:33:03.938Z,50.23
2019-01-18T08:35:35.737Z,68.43
2019-01-18T08:38:07.740Z,62.70
2019-01-18T08:40:43.768Z,54.80
2019-01-18T08:43:17.397Z,56.37
2019-01-18T08:45:55.335Z,67.80
2019-01-18T08:48:26.568Z,93.87
2019-01-18T08:50:57.868Z,57.53
2019-01-18T08:53:29.500Z,70.47
2019-01-18T08:56:00.954Z,89.93
2019-01-18T08:58:32.130Z,62.70
2019-01-18T09:01:03.494Z,60.83
2019-01-18T09:03:34.770Z,70.43
2019-01-18T09:06:06.244Z,158.57
2019-01-18T09:08:37.502Z,51.00
2019-01-18T09:11:08.778Z,82.13
2019-01-18T09:13:40.018Z,111.73
2019-01-18T09:16:11.304Z,101.23
2019-01-18T09:18:42.629Z,73.63
2019-01-18T09:21:13.902Z,83.53
2019-01-18T09:23:45.167Z,71.57
2019-01-18T09:26:16.356Z,62.30
2019-01-18T09:28:47.593Z,77.43
2019-01-18T09:31:18.971Z,114.63
2019-01-18T09:33:50.329Z,48.00
2019-01-18T09:36:21.570Z,51.53
2019-01-18T09:38:52.791Z,76.03
2019-01-18T09:41:24.062Z,76.93
2019-01-18T09:43:55.223Z,82.73
2019-01-18T09:46:26.574Z,117.53
2019-01-18T09:48:57.900Z,90.43
2019-01-18T09:54:00.542Z,77.37
2019-01-18T09:56:34.691Z,54.30
2019-01-18T09:59:06.009Z,58.33
2019-01-18T10:01:37.339Z,102.23
2019-01-18T10:04:08.923Z,55.10
2019-01-18T10:06:40.413Z,59.13
2019-01-18T10:09:12.072Z,62.33
2019-01-18T10:11:43.404Z,67.17
2019-01-18T10:14:14.720Z,70.60
2019-01-18T10:16:46.051Z,103.10
2019-01-18T10:19:17.453Z,58.67
2019-01-18T10:21:49.102Z,63.57
2019-01-18T10:24:21.096Z,62.47
2019-01-18T10:26:55.387Z,57.07
2019-01-18T10:29:35.779Z,68.03
2019-01-18T10:32:18.251Z,59.07
2019-01-18T10:34:55.685Z,54.47
2019-01-18T10:37:29.312Z,73.70
2019-01-18T10:40:04.725Z,58.27
2019-01-18T10:42:37.469Z,67.13
2019-01-18T10:45:11.746Z,63.60
2019-01-18T10:47:43.280Z,63.73
2019-01-18T10:50:26.909Z,62.90
2019-01-18T10:53:00.563Z,65.03
2019-01-18T10:55:31.933Z,76.40
2019-01-18T10:58:03.443Z,60.60
2019-01-18T11:00:40.085Z,56.67
2019-01-18T11:03:12.519Z,61.73
2019-01-18T11:05:50.975Z,63.73
2019-01-18T11:08:22.249Z,69.27
2019-01-18T11:10:53.924Z,68.33
2019-01-18T11:13:25.316Z,71.63
2019-01-18T11:15:56.575Z,58.67
2019-01-18T11:18:27.851Z,63.43
2019-01-18T11:21:11.788Z,72.37
2019-01-18T11:23:43.107Z,59.93
2019-01-18T11:26:14.375Z,61.43
2019-01-18T11:28:45.647Z,61.70
2019-01-18T11:31:16.938Z,64.17
2019-01-18T11:33:54.394Z,66.50
2019-01-18T11:36:25.647Z,80.50
2019-01-18T11:38:56.873Z,67.23
2019-01-18T11:41:29.105Z,57.20
2019-01-18T11:44:00.371Z,56.70
2019-01-18T11:46:41.096Z,63.03
2019-01-18T11:49:12.347Z,67.57
2019-01-18T11:51:43.595Z,55.57
2019-01-18T11:54:14.906Z,59.47
2019-01-18T11:56:46.152Z,55.40
2019-01-18T11:59:17.588Z,69.23
2019-01-18T12:01:48.808Z,62.00
2019-01-18T12:04:20.069Z,56.50
2019-01-18T12:06:51.304Z,61.47
2019-01-18T12:09:22.526Z,58.20
2019-01-18T12:11:53.779Z,54.40
2019-01-18T12:14:25.063Z,62.10
2019-01-18T12:16:59.175Z,69.97
2019-01-18T12:19:36.598Z,60.53
2019-01-18T12:22:08.098Z,51.67
2019-01-18T12:24:39.397Z,54.67
2019-01-18T12:27:10.819Z,61.80
2019-01-18T12:29:47.182Z,50.27
2019-01-18T12:32:28.614Z,51.33
2019-01-18T12:34:55.453Z,62.43
2019-01-18T12:37:26.771Z,53.13
2019-01-18T12:39:57.995Z,55.57
2019-01-18T12:42:29.335Z,53.53
2019-01-18T12:45:01.256Z,60.97
2019-01-18T12:47:32.815Z,58.50
2019-01-18T12:50:04.064Z,54.77
2019-01-18T12:52:35.403Z,53.27
2019-01-18T12:55:07.795Z,50.00
2019-01-18T12:57:39.124Z,57.27
2019-01-18T13:00:15.335Z,54.90
2019-01-18T13:02:46.969Z,56.07
2019-01-18T13:05:22.762Z,50.33
2019-01-18T13:07:55.322Z,55.67
2019-01-18T13:10:26.768Z,64.87
2019-01-18T13:12:58.052Z,55.03
2019-01-18T13:15:57.985Z,54.37
2019-01-18T13:18:29.315Z,55.17
2019-01-18T13:21:00.692Z,55.30
2019-01-18T13:23:32.028Z,49.23
2019-01-18T13:26:03.285Z,47.47
2019-01-18T13:28:34.478Z,55.00
2019-01-18T13:31:05.970Z,47.23
2019-01-18T13:33:37.301Z,53.50
2019-01-18T13:36:15.485Z,49.10
2019-01-18T13:38:47.152Z,57.20
2019-01-18T13:41:18.456Z,56.43
2019-01-18T13:43:49.755Z,45.10
2019-01-18T13:46:21.184Z,46.00
2019-01-18T13:48:54.903Z,37.37
2019-01-18T13:51:26.252Z,33.47
2019-01-18T13:53:57.606Z,27.60
2019-01-18T13:56:30.572Z,25.53
2019-01-18T13:59:01.970Z,24.90
2019-01-18T14:01:33.204Z,23.33
2019-01-18T14:04:04.591Z,19.70
2019-01-18T14:06:35.836Z,22.93
2019-01-18T14:09:10.420Z,26.80
2019-01-18T14:11:41.760Z,26.10
2019-01-18T14:14:13.118Z,24.53
2019-01-18T14:16:44.493Z,18.90
2019-01-18T14:19:16.063Z,22.03
2019-01-18T14:21:47.358Z,15.47
2019-01-18T14:24:18.601Z,18.27
2019-01-18T14:26:53.900Z,17.03
2019-01-18T14:29:25.311Z,13.00
2019-01-18T14:31:56.600Z,11.97
2019-01-18T14:34:27.890Z,14.13
2019-01-18T14:37:01.504Z,14.83
2019-01-18T14:39:32.878Z,14.43
2019-01-18T14:42:04.198Z,17.43
2019-01-18T14:44:35.466Z,20.77
2019-01-18T14:47:07.608Z,18.90
2019-01-18T14:49:38.942Z,15.63
2019-01-18T14:52:10.968Z,17.50
2019-01-18T14:54:42.205Z,18.13
2019-01-18T14:57:13.500Z,17.07
2019-01-18T14:59:44.910Z,19.77
2019-01-18T15:02:16.303Z,22.70
2019-01-18T15:04:48.438Z,18.87
2019-01-18T15:07:19.625Z,19.33
2019-01-18T15:09:52.380Z,16.87
2019-01-18T15:12:23.658Z,17.60
2019-01-18T15:14:54.925Z,15.63
2019-01-18T15:17:26.129Z,20.80
2019-01-18T15:20:02.742Z,14.37
2019-01-18T15:22:34.039Z,12.17
2019-01-18T15:25:05.733Z,16.03
2019-01-18T15:27:37.007Z,17.37
2019-01-18T15:30:10.946Z,15.03
2019-01-18T15:32:42.207Z,14.57
2019-01-18T15:35:17.188Z,15.43
2019-01-18T15:37:48.436Z,17.83
2019-01-18T15:40:25.933Z,11.00
2019-01-18T15:42:59.333Z,16.87
2019-01-18T15:45:30.553Z,15.30
2019-01-18T15:48:01.981Z,17.47
2019-01-18T15:50:38.867Z,19.97
2019-01-18T15:53:12.337Z,23.00
2019-01-18T15:55:43.667Z,26.40
2019-01-18T15:58:15.518Z,25.17
2019-01-18T16:00:47.144Z,20.93
2019-01-18T16:03:18.580Z,21.60
2019-01-18T16:05:49.817Z,29.93
2019-01-18T16:08:21.053Z,23.70
2019-01-18T16:10:52.339Z,25.80
2019-01-18T16:13:26.223Z,29.63
2019-01-18T16:16:24.314Z,26.27
2019-01-18T16:18:59.029Z,22.93
2019-01-18T16:21:30.448Z,26.67
2019-01-18T16:24:01.805Z,37.97
2019-01-18T16:26:33.056Z,24.10
2019-01-18T16:29:04.462Z,28.77
2019-01-18T16:31:35.804Z,29.30
2019-01-18T16:34:07.364Z,39.03
2019-01-18T16:36:38.710Z,31.73
2019-01-18T16:39:12.048Z,37.83
2019-01-18T16:41:43.682Z,34.87
2019-01-18T16:44:15.011Z,31.13
2019-01-18T16:46:46.328Z,32.30
2019-01-18T16:49:17.713Z,30.43
2019-01-18T16:51:48.990Z,35.67
2019-01-18T16:54:20.594Z,35.87
2019-01-18T16:56:51.879Z,40.17
2019-01-18T16:59:23.275Z,33.87
2019-01-18T17:01:54.731Z,34.13
2019-01-18T17:04:26.036Z,35.40
2019-01-18T17:06:57.323Z,33.40
2019-01-18T17:09:28.634Z,42.13
2019-01-18T17:11:59.877Z,38.03
2019-01-18T17:14:31.218Z,41.20
2019-01-18T17:17:02.645Z,36.43
2019-01-18T17:19:33.946Z,44.07
2019-01-18T17:22:05.230Z,39.53
2019-01-18T17:24:36.500Z,41.60
2019-01-18T17:27:07.799Z,35.17
2019-01-18T17:29:39.307Z,37.00
2019-01-18T17:32:10.593Z,39.80
2019-01-18T17:34:41.876Z,40.80
2019-01-18T17:37:30.497Z,36.70
2019-01-18T17:40:42.418Z,53.83
2019-01-18T17:44:09.556Z,36.90
2019-01-18T17:47:43.443Z,32.03
2019-01-18T17:51:01.732Z,30.53
2019-01-18T17:54:27.068Z,30.10
2019-01-18T17:57:55.775Z,29.27
2019-01-18T18:00:58.182Z,23.60
2019-01-18T18:04:31.268Z,33.80
2019-01-18T18:07:45.515Z,36.37
2019-01-18T18:11:11.115Z,33.67
2019-01-18T18:14:28.977Z,31.37
2019-01-18T18:18:20.937Z,32.47
2019-01-18T18:22:03.094Z,30.90
2019-01-18T18:25:00.432Z,28.40
2019-01-18T18:28:14.952Z,32.50
2019-01-18T18:31:46.333Z,29.83
2019-01-18T18:35:11.806Z,31.27
2019-01-18T18:38:51.886Z,26.27
2019-01-18T18:42:06.121Z,23.30
2019-01-18T18:45:40.108Z,27.50
2019-01-18T18:49:01.166Z,25.73
2019-01-18T18:52:34.028Z,26.27
2019-01-18T18:56:01.142Z,28.83
2019-01-18T18:59:18.485Z,28.13
2019-01-18T19:02:56.918Z,30.03
2019-01-18T19:06:42.868Z,43.77
2019-01-18T19:10:03.283Z,38.33
2019-01-18T19:13:54.921Z,31.93
2019-01-18T19:17:33.470Z,38.57
2019-01-18T19:21:13.362Z,29.67
2019-01-18T19:24:46.344Z,33.07
2019-01-18T19:28:06.282Z,41.37
2019-01-18T19:31:29.442Z,40.27
2019-01-18T19:35:01.909Z,41.67
2019-01-18T19:38:50.269Z,44.03
2019-01-18T19:42:28.902Z,31.90
2019-01-18T19:45:50.453Z,26.53
2019-01-18T19:49:14.646Z,29.63
2019-01-18T19:52:51.817Z,32.17
2019-01-18T19:56:21.012Z,34.00
2019-01-18T20:00:00.990Z,34.97
2019-01-18T20:03:04.579Z,29.73
2019-01-18T20:06:59.444Z,28.60
2019-01-18T20:10:05.467Z,36.67
2019-01-18T20:13:51.133Z,30.17
2019-01-18T20:17:15.687Z,31.70
2019-01-18T20:20:52.652Z,38.90
2019-01-18T20:24:18.107Z,25.57
2019-01-18T20:27:32.166Z,26.07
2019-01-18T20:30:54.444Z,30.83
2019-01-18T20:34:19.796Z,30.10
2019-01-18T20:37:34.300Z,36.60
2019-01-18T20:40:52.530Z,28.87
2019-01-18T20:44:32.881Z,31.40
2019-01-18T20:47:55.463Z,26.03
2019-01-18T20:51:26.986Z,37.30
2019-01-18T20:55:06.091Z,28.30
2019-01-18T20:58:19.380Z,31.20
2019-01-18T21:02:09.009Z,34.43
2019-01-18T21:05:24.920Z,35.00
2019-01-18T21:08:55.210Z,31.50
2019-01-18T21:12:00.979Z,31.77
2019-01-18T21:15:17.838Z,35.93
2019-01-18T21:18:34.838Z,31.50
2019-01-18T21:21:58.010Z,27.30
2019-01-18T21:25:12.401Z,29.33
2019-01-18T21:28:58.258Z,23.77
2019-01-18T21:32:28.771Z,29.53
2019-01-18T21:35:57.303Z,30.27
2019-01-18T21:39:55.434Z,25.50
2019-01-18T21:43:15.276Z,28.30
2019-01-18T21:46:20.200Z,25.27
2019-01-18T21:49:53.855Z,22.80
2019-01-18T21:53:25.174Z,24.63
2019-01-18T21:56:40.861Z,26.27
2019-01-18T21:59:53.355Z,25.27
2019-01-18T22:03:15.051Z,24.77
2019-01-18T22:06:42.411Z,23.87
2019-01-18T22:09:44.630Z,30.77
2019-01-18T22:13:06.272Z,27.63
2019-01-18T22:16:25.579Z,24.73
2019-01-18T22:20:13.774Z,19.63
2019-01-18T22:23:05.901Z,29.50
2019-01-18T22:26:50.536Z,26.50
2019-01-18T22:30:19.252Z,27.53
2019-01-18T22:33:26.312Z,25.40
2019-01-18T22:36:53.031Z,20.60
2019-01-18T22:40:25.030Z,32.47
2019-01-18T22:43:55.008Z,27.70
2019-01-18T22:47:40.089Z,27.60
2019-01-18T22:51:04.619Z,24.43
2019-01-18T22:54:18.368Z,32.37
2019-01-18T22:58:01.715Z,31.87
2019-01-18T23:01:53.115Z,24.87
2019-01-18T23:05:21.429Z,24.70
2019-01-18T23:08:41.588Z,25.17
2019-01-18T23:11:58.694Z,22.90
2019-01-18T23:15:38.989Z,25.23
2019-01-18T23:18:51.859Z,27.83
2019-01-18T23:22:18.155Z,29.37
2019-01-18T23:25:34.379Z,22.80
2019-01-18T23:28:59.086Z,23.53
2019-01-18T23:32:01.317Z,29.87
2019-01-18T23:35:03.158Z,35.47
2019-01-18T23:38:40.049Z,28.20
2019-01-18T23:42:11.091Z,32.00
2019-01-18T23:45:48.285Z,23.77
2019-01-18T23:49:08.431Z,22.77
2019-01-18T23:52:40.865Z,31.83
2019-01-18T23:56:21.292Z,25.90
2019-01-18T23:59:47.421Z,27.20
